Time;durP1;ratioP1;P1;durP2;ratioP2;P2;SDS_P1;SDS_P2;PMS_P1;PMS_P2;Temp;Humidity;BMP_temperature;BMP_pressure;BME280_temperature;BME280_humidity;BME280_pressure;Samples;Min_cycle;Max_cycle;Signal;HPM_P1;HPM_P2
2023/01/16 00:00:05;;;;;;;42.88;29.23;;;7.60;99.90;;;;;;5051111;28;20385;-49
2023/01/16 00:02:31;;;;;;;26.08;16.83;;;7.50;99.90;;;;;;5043763;28;20083;-48
2023/01/16 00:04:56;;;;;;;22.48;15.77;;;7.50;99.90;;;;;;5043313;28;20033;-48
2023/01/16 00:07:22;;;;;;;26.27;18.52;;;7.40;99.90;;;;;;5046852;28;20045;-48
2023/01/16 00:09:48;;;;;;;25.95;18.80;;;;;;;;;;5049792;28;20100;-48
2023/01/16 00:12:14;;;;;;;25.85;17.92;;;7.30;99.90;;;;;;5032073;28;20033;-49
2023/01/16 00:14:39;;;;;;;23.50;16.63;;;7.30;99.90;;;;;;5045372;28;20032;-48
2023/01/16 00:17:05;;;;;;;24.33;15.68;;;7.30;99.90;;;;;;5047663;28;20047;-48
2023/01/16 00:19:31;;;;;;;22.65;15.52;;;7.30;99.90;;;;;;5033684;28;20041;-49
2023/01/16 00:21:57;;;;;;;35.80;22.95;;;7.20;99.90;;;;;;5049387;28;20064;-49
2023/01/16 00:24:22;;;;;;;25.13;16.48;;;7.40;99.90;;;;;;5051070;28;20028;-48
2023/01/16 00:26:52;;;;;;;27.75;17.98;;;7.40;99.90;;;;;;5049563;28;20108;-48
2023/01/16 00:29:18;;;;;;;37.05;24.00;;;7.40;99.90;;;;;;5049325;28;20139;-48
2023/01/16 00:31:43;;;;;;;30.60;21.08;;;7.50;99.90;;;;;;5051280;28;20505;-48
2023/01/16 00:34:09;;;;;;;26.38;17.77;;;7.50;99.90;;;;;;5046968;28;20060;-48
2023/01/16 00:36:35;;;;;;;25.35;17.77;;;7.60;99.90;;;;;;5048110;28;20060;-48
2023/01/16 00:39:00;;;;;;;24.98;16.85;;;7.70;99.90;;;;;;5047748;28;20037;-48
2023/01/16 00:41:26;;;;;;;26.77;17.48;;;7.60;99.90;;;;;;5055070;28;20037;-48
2023/01/16 00:43:52;;;;;;;26.50;17.70;;;7.70;99.90;;;;;;5052731;28;20564;-48
2023/01/16 00:46:18;;;;;;;24.90;17.25;;;7.70;99.90;;;;;;5012626;28;20086;-48
2023/01/16 00:48:43;;;;;;;25.25;18.02;;;7.70;99.90;;;;;;5053773;28;20489;-48
2023/01/16 00:51:09;;;;;;;24.00;16.52;;;7.80;99.90;;;;;;5053987;28;20043;-49
2023/01/16 00:53:35;;;;;;;23.00;16.50;;;7.80;99.90;;;;;;5040873;28;20029;-48
2023/01/16 00:56:01;;;;;;;28.67;18.50;;;7.90;99.90;;;;;;5032627;28;20072;-48
2023/01/16 00:58:27;;;;;;;64.28;35.90;;;;;;;;;;5035319;28;20049;-48
2023/01/16 01:00:53;;;;;;;24.45;16.67;;;;;;;;;;5046026;28;20477;-48
2023/01/16 01:03:18;;;;;;;25.13;17.48;;;8.60;99.90;;;;;;5053856;28;20116;-48
2023/01/16 01:05:44;;;;;;;27.80;19.58;;;8.60;99.90;;;;;;5052764;28;20128;-49
2023/01/16 01:08:10;;;;;;;31.10;21.63;;;;;;;;;;5049343;28;20033;-49
2023/01/16 01:10:38;;;;;;;31.20;22.00;;;9.00;99.90;;;;;;5050940;28;20090;-48
2023/01/16 01:13:04;;;;;;;30.77;19.73;;;8.90;99.90;;;;;;5043417;28;20362;-48
2023/01/16 01:15:30;;;;;;;30.77;21.48;;;8.90;99.90;;;;;;5035142;28;20037;-48
2023/01/16 01:17:55;;;;;;;34.10;23.67;;;8.70;99.90;;;;;;5025805;28;20098;-48
2023/01/16 01:20:21;;;;;;;39.20;26.85;;;8.60;99.90;;;;;;5038830;28;20048;-48
2023/01/16 01:22:47;;;;;;;43.03;30.70;;;8.60;99.90;;;;;;5023018;28;20037;-49
2023/01/16 01:25:13;;;;;;;51.92;32.22;;;8.80;99.90;;;;;;5035355;28;20040;-48
2023/01/16 01:27:39;;;;;;;53.10;35.80;;;8.90;99.90;;;;;;5032969;28;20504;-48
2023/01/16 01:30:05;;;;;;;60.08;38.78;;;9.10;99.90;;;;;;5033884;28;20072;-48
2023/01/16 01:32:31;;;;;;;61.30;38.88;;;9.10;99.90;;;;;;5050355;28;20087;-48
2023/01/16 01:34:58;;;;;;;65.93;43.20;;;9.20;99.90;;;;;;5046383;28;20373;-49
2023/01/16 01:37:24;;;;;;;66.18;40.85;;;9.20;99.90;;;;;;5048450;28;20091;-48
2023/01/16 01:39:50;;;;;;;70.53;46.13;;;9.30;99.90;;;;;;5050349;28;20029;-48
2023/01/16 01:45:11;;;;;;;61.13;36.97;;;9.30;99.90;;;;;;5044413;28;20039;-49
2023/01/16 01:47:41;;;;;;;58.95;36.90;;;9.10;99.90;;;;;;5049313;28;20086;-48
2023/01/16 01:50:26;;;;;;;56.58;36.20;;;9.00;99.90;;;;;;5049381;28;20029;-48
2023/01/16 01:52:53;;;;;;;56.08;35.65;;;9.00;99.90;;;;;;5049318;28;20385;-48
2023/01/16 01:55:21;;;;;;;57.72;37.35;;;9.10;99.90;;;;;;5046025;28;20057;-48
2023/01/16 01:57:52;;;;;;;76.10;50.35;;;9.10;99.90;;;;;;5054179;28;20469;-48
2023/01/16 02:00:21;;;;;;;52.92;34.08;;;9.20;99.90;;;;;;5054603;28;20052;-48
2023/01/16 02:02:53;;;;;;;44.97;29.20;;;9.00;99.90;;;;;;5054940;28;20029;-48
2023/01/16 02:05:24;;;;;;;44.00;28.33;;;8.90;99.90;;;;;;5054373;28;20029;-48
2023/01/16 02:07:51;;;;;;;42.58;28.92;;;8.70;99.90;;;;;;5054781;28;20029;-49
2023/01/16 02:10:23;;;;;;;41.10;27.73;;;8.80;99.90;;;;;;5052294;28;20036;-48
2023/01/16 02:12:50;;;;;;;39.80;27.73;;;8.80;99.90;;;;;;5054611;28;20025;-48
2023/01/16 02:15:16;;;;;;;40.15;28.30;;;8.80;99.90;;;;;;5054208;28;20033;-48
2023/01/16 02:20:35;;;;;;;42.63;28.90;;;9.00;99.90;;;;;;5054180;28;20127;-48
2023/01/16 02:23:22;;;;;;;47.13;31.50;;;9.20;99.90;;;;;;5053029;28;20409;-48
2023/01/16 02:25:51;;;;;;;48.92;31.38;;;;;;;;;;5054360;28;20032;-48
2023/01/16 02:28:32;;;;;;;45.72;29.77;;;;;;;;;;5054473;28;20032;-48
2023/01/16 02:31:07;;;;;;;44.47;30.67;;;9.40;99.90;;;;;;5054476;28;20086;-48
2023/01/16 02:33:58;;;;;;;46.28;31.60;;;9.30;99.90;;;;;;5054522;28;20091;-48
2023/01/16 02:36:46;;;;;;;48.90;32.40;;;9.30;99.90;;;;;;5053884;28;20025;-49
2023/01/16 02:39:48;;;;;;;50.80;31.65;;;9.20;99.90;;;;;;5054363;28;20029;-49
2023/01/16 02:42:41;;;;;;;50.17;31.42;;;9.10;99.90;;;;;;5053181;28;20035;-48
2023/01/16 02:45:12;;;;;;;43.92;30.23;;;8.80;99.90;;;;;;5035395;28;20074;-48
2023/01/16 02:47:44;;;;;;;40.70;29.17;;;8.40;99.90;;;;;;5053696;28;20021;-49
2023/01/16 02:50:27;;;;;;;41.85;28.45;;;8.50;99.90;;;;;;5035286;28;20025;-49
2023/01/16 02:52:53;;;;;;;47.40;29.27;;;;;;;;;;5053828;28;20108;-48
2023/01/16 02:55:37;;;;;;;43.45;30.58;;;;;;;;;;5053245;28;20049;-49
2023/01/16 02:58:05;;;;;;;44.60;29.42;;;;;;;;;;5053565;28;20090;-48
2023/01/16 03:00:33;;;;;;;45.65;30.45;;;8.70;99.90;;;;;;5053434;28;20029;-48
2023/01/16 03:02:58;;;;;;;61.75;37.20;;;8.70;99.90;;;;;;5051160;28;20033;-48
2023/01/16 03:05:26;;;;;;;47.03;28.80;;;8.80;99.90;;;;;;5034730;28;20431;-48
2023/01/16 03:08:30;;;;;;;55.70;35.33;;;8.80;99.90;;;;;;5053778;28;20024;-48
2023/01/16 03:11:14;;;;;;;49.80;32.65;;;8.70;99.90;;;;;;5011558;28;20597;-48
2023/01/16 03:14:10;;;;;;;50.35;31.77;;;8.50;99.90;;;;;;5011513;28;20049;-48
2023/01/16 03:17:13;;;;;;;49.65;31.67;;;7.90;99.90;;;;;;4995092;28;20069;-48
2023/01/16 03:20:03;;;;;;;40.83;28.45;;;7.60;99.90;;;;;;5011268;28;20104;-48
2023/01/16 03:22:43;;;;;;;54.20;34.33;;;7.50;99.90;;;;;;5011386;28;20038;-48
2023/01/16 03:25:52;;;;;;;75.93;48.97;;;7.80;99.90;;;;;;5011357;28;20393;-48
2023/01/16 03:28:25;;;;;;;61.30;40.63;;;8.10;99.90;;;;;;4972415;28;20561;-48
2023/01/16 03:31:33;;;;;;;74.47;47.58;;;8.20;99.90;;;;;;4972253;28;20106;-48
2023/01/16 03:34:33;;;;;;;76.68;49.67;;;7.90;99.90;;;;;;4933752;29;20052;-48
2023/01/16 03:37:31;;;;;;;67.80;43.03;;;8.00;99.90;;;;;;4933597;29;20047;-48
2023/01/16 03:40:06;;;;;;;63.42;36.40;;;8.10;99.90;;;;;;4933875;29;20110;-48
2023/01/16 03:42:36;;;;;;;48.35;31.98;;;7.60;99.90;;;;;;4933503;29;20039;-49
2023/01/16 03:45:08;;;;;;;46.38;28.73;;;7.30;99.90;;;;;;4923155;29;20036;-49
2023/01/16 03:47:40;;;;;;;41.60;28.55;;;7.10;99.90;;;;;;4927293;29;20044;-49
2023/01/16 03:50:08;;;;;;;40.45;26.55;;;6.60;99.90;;;;;;4895993;29;20168;-48
2023/01/16 03:52:40;;;;;;;43.22;27.38;;;6.40;99.90;;;;;;4927337;29;20044;-49
2023/01/16 03:55:19;;;;;;;42.33;26.52;;;6.20;99.90;;;;;;4907316;29;20580;-48
2023/01/16 03:58:16;;;;;;;42.55;29.25;;;5.90;99.90;;;;;;4914431;29;20044;-48
2023/01/16 04:00:47;;;;;;;41.65;26.27;;;;;;;;;;4914596;29;20036;-48
2023/01/16 04:03:21;;;;;;;48.42;29.73;;;6.00;99.90;;;;;;4914682;29;20036;-48
2023/01/16 04:06:04;;;;;;;47.05;30.95;;;6.10;99.90;;;;;;4914388;29;20469;-48
2023/01/16 04:08:37;;;;;;;45.75;29.92;;;6.20;99.90;;;;;;4928296;29;20039;-47
2023/01/16 04:11:04;;;;;;;46.17;31.20;;;6.30;99.90;;;;;;4997974;28;20065;-48
2023/01/16 04:13:36;;;;;;;46.20;30.48;;;6.20;99.90;;;;;;5044721;28;20041;-48
2023/01/16 04:16:07;;;;;;;45.88;31.35;;;6.30;99.90;;;;;;5054760;28;20056;-48
2023/01/16 04:18:35;;;;;;;48.10;31.70;;;6.30;99.90;;;;;;5038730;28;20045;-48
2023/01/16 04:21:05;;;;;;;44.25;29.80;;;6.40;99.90;;;;;;5056191;28;20075;-48
2023/01/16 04:23:31;;;;;;;48.00;31.30;;;6.30;99.90;;;;;;5056529;28;20025;-48
2023/01/16 04:25:57;;;;;;;46.35;30.55;;;6.40;99.90;;;;;;5056308;28;20044;-48
2023/01/16 04:28:22;;;;;;;44.38;30.23;;;6.50;99.90;;;;;;5005046;28;20088;-48
2023/01/16 04:30:48;;;;;;;45.47;29.73;;;6.30;99.90;;;;;;5056340;28;20021;-48
2023/01/16 04:33:14;;;;;;;44.55;29.55;;;6.30;99.90;;;;;;5056492;28;20032;-48
2023/01/16 04:35:39;;;;;;;41.38;25.35;;;6.20;99.90;;;;;;5037900;28;20041;-48
2023/01/16 04:38:05;;;;;;;36.97;24.90;;;5.80;99.90;;;;;;5056359;28;20029;-48
2023/01/16 04:40:31;;;;;;;35.47;24.60;;;5.70;99.90;;;;;;5054493;28;20492;-48
2023/01/16 04:42:57;;;;;;;39.17;25.75;;;5.70;99.90;;;;;;5056250;28;20056;-48
2023/01/16 04:45:23;;;;;;;36.65;23.55;;;5.60;99.90;;;;;;5037573;28;20111;-48
2023/01/16 04:47:50;;;;;;;36.55;23.67;;;5.60;99.90;;;;;;5056399;28;20044;-48
2023/01/16 04:50:16;;;;;;;40.58;26.40;;;5.50;99.90;;;;;;5056041;28;20492;-48
2023/01/16 04:52:42;;;;;;;38.53;25.02;;;5.50;99.90;;;;;;5054018;28;20554;-48
2023/01/16 04:55:09;;;;;;;32.70;22.48;;;5.50;99.90;;;;;;5053937;28;20044;-48
2023/01/16 04:57:35;;;;;;;31.88;21.48;;;5.50;99.90;;;;;;5053940;28;20037;-48
2023/01/16 05:00:01;;;;;;;32.80;21.73;;;5.60;99.90;;;;;;5053945;28;20043;-48
2023/01/16 05:02:27;;;;;;;35.20;22.65;;;5.70;99.90;;;;;;5055845;28;20416;-48
2023/01/16 05:04:54;;;;;;;30.73;19.70;;;5.60;99.90;;;;;;5070740;28;20382;-48
2023/01/16 05:07:20;;;;;;;32.67;21.88;;;5.60;99.90;;;;;;5055728;28;20036;-48
2023/01/16 05:09:45;;;;;;;35.38;22.17;;;5.50;99.90;;;;;;5054159;28;20036;-48
2023/01/16 05:12:11;;;;;;;33.17;21.60;;;5.60;99.90;;;;;;5055576;28;20032;-48
2023/01/16 05:14:37;;;;;;;35.67;22.08;;;5.50;99.90;;;;;;5037211;28;20478;-48
2023/01/16 05:17:03;;;;;;;30.17;20.48;;;5.50;99.90;;;;;;5052759;28;20120;-47
2023/01/16 05:19:29;;;;;;;33.65;22.52;;;5.50;99.90;;;;;;5055358;28;20033;-48
2023/01/16 05:21:54;;;;;;;34.58;23.80;;;5.60;99.90;;;;;;5055411;28;20024;-48
2023/01/16 05:24:20;;;;;;;34.80;23.42;;;5.70;99.90;;;;;;5069358;28;20132;-48
2023/01/16 05:26:46;;;;;;;34.55;22.90;;;5.80;99.90;;;;;;5055210;28;20397;-48
2023/01/16 05:29:11;;;;;;;29.40;20.02;;;5.90;99.90;;;;;;5055690;28;20029;-48
2023/01/16 05:31:37;;;;;;;27.50;19.83;;;5.80;99.90;;;;;;5055348;28;20025;-48
2023/01/16 05:34:03;;;;;;;25.58;17.65;;;5.80;99.90;;;;;;5053394;28;20123;-48
2023/01/16 05:36:29;;;;;;;26.15;19.15;;;5.80;99.90;;;;;;5055196;28;20120;-48
2023/01/16 05:38:54;;;;;;;24.15;16.17;;;5.80;99.90;;;;;;5055576;28;20041;-48
2023/01/16 05:41:20;;;;;;;22.70;15.77;;;5.80;99.90;;;;;;5054385;28;20032;-48
2023/01/16 05:43:46;;;;;;;23.90;15.57;;;5.80;99.90;;;;;;5055316;28;20037;-48
2023/01/16 05:46:12;;;;;;;30.55;20.35;;;5.70;99.90;;;;;;5055165;28;20064;-48
2023/01/16 05:48:39;;;;;;;29.58;19.85;;;5.70;99.90;;;;;;5052302;28;20072;-48
2023/01/16 05:51:05;;;;;;;31.63;21.48;;;5.50;99.90;;;;;;5055023;28;20036;-48
2023/01/16 05:53:31;;;;;;;32.75;21.08;;;;;;;;;;5054691;28;20031;-48
2023/01/16 05:55:58;;;;;;;27.17;17.67;;;5.60;99.90;;;;;;5054846;28;20384;-48
2023/01/16 05:58:24;;;;;;;21.85;13.95;;;5.60;99.90;;;;;;5036066;28;20044;-48
2023/01/16 06:00:50;;;;;;;23.33;16.23;;;5.50;99.90;;;;;;5054856;28;20029;-48
2023/01/16 06:03:17;;;;;;;20.40;13.93;;;5.60;99.90;;;;;;5054712;28;20477;-48
2023/01/16 06:05:42;;;;;;;15.23;9.65;;;5.60;99.90;;;;;;5054647;28;20064;-48
2023/01/16 06:08:08;;;;;;;20.35;13.52;;;5.50;99.90;;;;;;5036188;28;20040;-48
2023/01/16 06:10:35;;;;;;;21.20;14.48;;;5.40;99.90;;;;;;5035376;28;20044;-49
2023/01/16 06:13:01;;;;;;;28.25;15.80;;;5.60;99.90;;;;;;5051396;28;20060;-48
2023/01/16 06:15:27;;;;;;;23.15;16.67;;;5.70;99.90;;;;;;5047223;28;20071;-47
2023/01/16 06:17:55;;;;;;;23.95;16.13;;;;;;;;;;5054138;28;20061;-48
2023/01/16 06:20:21;;;;;;;29.10;17.88;;;5.90;99.90;;;;;;5054183;28;20037;-50
2023/01/16 06:22:47;;;;;;;27.15;16.90;;;5.80;99.90;;;;;;5053179;28;20492;-48
2023/01/16 06:25:13;;;;;;;56.20;28.65;;;5.90;99.90;;;;;;5035244;28;20040;-49
2023/01/16 06:27:39;;;;;;;39.10;23.85;;;5.70;99.90;;;;;;5054473;28;20033;-49
2023/01/16 06:30:08;;;;;;;48.63;28.20;;;5.70;99.90;;;;;;5051130;28;20043;-49
2023/01/16 06:32:34;;;;;;;66.97;33.83;;;5.70;99.90;;;;;;4966283;28;20452;-49
2023/01/16 06:35:00;;;;;;;36.15;22.13;;;5.80;99.90;;;;;;5032230;28;20038;-49
2023/01/16 06:37:26;;;;;;;26.90;17.10;;;;;;;;;;4984733;28;20075;-49
2023/01/16 06:39:51;;;;;;;26.20;15.52;;;6.10;99.90;;;;;;5033929;28;20107;-50
2023/01/16 06:42:17;;;;;;;27.55;16.48;;;6.00;99.90;;;;;;5016779;28;20440;-49
2023/01/16 06:44:43;;;;;;;28.75;19.00;;;5.90;99.90;;;;;;4999197;28;20055;-51
2023/01/16 06:47:09;;;;;;;24.67;17.17;;;6.00;99.90;;;;;;5051732;28;20033;-49
2023/01/16 06:49:35;;;;;;;22.52;15.07;;;5.80;99.90;;;;;;5018477;28;20049;-49
2023/01/16 06:52:01;;;;;;;22.50;15.50;;;5.80;99.90;;;;;;5051586;28;20032;-49
2023/01/16 06:54:26;;;;;;;23.15;15.30;;;5.90;99.90;;;;;;5051486;28;20095;-49
2023/01/16 06:56:52;;;;;;;23.05;13.77;;;6.00;99.90;;;;;;5051648;28;20037;-49
2023/01/16 06:59:18;;;;;;;20.83;13.63;;;5.90;99.90;;;;;;5034059;28;20507;-49
2023/01/16 07:01:44;;;;;;;19.40;13.52;;;5.80;99.90;;;;;;5030534;28;20040;-49
2023/01/16 07:04:10;;;;;;;19.75;13.13;;;5.70;99.90;;;;;;5035139;28;20124;-51
2023/01/16 07:06:37;;;;;;;22.52;15.70;;;5.90;99.90;;;;;;5051609;28;20036;-50
2023/01/16 07:09:03;;;;;;;20.27;14.57;;;6.00;99.90;;;;;;5053192;28;20043;-49
2023/01/16 07:11:29;;;;;;;24.13;15.43;;;6.10;99.90;;;;;;5053919;28;20115;-49
2023/01/16 07:22:34;;;;;;;22.75;14.40;;;6.20;99.90;;;;;;5031453;28;20045;-49
2023/01/16 07:24:58;;;;;;;13.88;8.23;;;6.10;99.90;;;;;;5031288;28;20570;-49
2023/01/16 07:27:24;;;;;;;19.40;11.45;;;6.10;99.90;;;;;;5031207;28;20140;-49
2023/01/16 07:29:51;;;;;;;16.27;10.60;;;6.30;99.90;;;;;;5031140;28;20116;-49
2023/01/16 07:32:17;;;;;;;20.00;10.80;;;6.40;99.90;;;;;;5030920;28;20053;-50
2023/01/16 07:34:43;;;;;;;17.10;11.43;;;6.40;99.90;;;;;;5031216;28;20042;-49
2023/01/16 07:37:10;;;;;;;19.02;12.50;;;6.60;99.90;;;;;;5031133;28;20091;-49
2023/01/16 07:39:37;;;;;;;21.67;14.43;;;6.80;99.90;;;;;;5030863;28;20049;-50
2023/01/16 07:42:07;;;;;;;15.68;10.38;;;6.90;99.90;;;;;;4998320;28;20049;-49
2023/01/16 07:44:33;;;;;;;15.32;9.32;;;6.70;99.90;;;;;;5038837;28;20124;-49
2023/01/16 07:46:58;;;;;;;16.75;11.60;;;6.50;99.90;;;;;;5059260;28;20136;-49
2023/01/16 07:49:24;;;;;;;22.25;12.77;;;6.70;99.90;;;;;;5048418;28;20094;-49
2023/01/16 07:51:50;;;;;;;10.82;6.72;;;7.00;99.90;;;;;;5045676;28;20501;-49
2023/01/16 07:54:16;;;;;;;20.27;13.10;;;6.80;99.90;;;;;;5046308;28;20086;-50
2023/01/16 07:56:41;;;;;;;25.35;15.65;;;6.90;99.90;;;;;;5052596;28;20116;-49
2023/01/16 07:59:07;;;;;;;28.13;17.83;;;7.00;99.90;;;;;;5052602;28;20077;-49
2023/01/16 08:01:33;;;;;;;14.57;7.68;;;7.00;99.90;;;;;;5050062;28;20029;-50
2023/01/16 08:03:59;;;;;;;15.73;9.00;;;6.90;99.90;;;;;;5051130;28;20402;-49
2023/01/16 08:06:25;;;;;;;8.65;5.32;;;;;;;;;;5051946;28;20158;-50
2023/01/16 08:08:51;;;;;;;14.38;9.80;;;6.70;99.90;;;;;;5045186;28;20372;-50
2023/01/16 08:11:35;;;;;;;17.80;11.43;;;6.70;99.90;;;;;;5043386;28;20044;-50
2023/01/16 08:14:02;;;;;;;19.50;11.98;;;6.80;99.90;;;;;;5048769;28;20137;-50
2023/01/16 08:16:28;;;;;;;15.07;10.52;;;7.00;99.90;;;;;;5045907;28;20036;-50
2023/01/16 08:18:54;;;;;;;14.88;9.93;;;7.00;99.90;;;;;;5047684;28;20045;-51
2023/01/16 08:21:20;;;;;;;16.77;10.95;;;6.90;99.90;;;;;;5050264;28;20443;-50
2023/01/16 08:23:46;;;;;;;9.35;6.75;;;7.00;99.90;;;;;;5048641;28;20037;-50
2023/01/16 08:26:13;;;;;;;13.43;9.15;;;6.90;99.90;;;;;;5025480;28;20481;-50
2023/01/16 08:28:39;;;;;;;14.07;9.40;;;7.10;99.90;;;;;;5049126;28;20036;-50
2023/01/16 08:31:08;;;;;;;18.10;12.55;;;7.10;99.90;;;;;;5050285;28;20033;-50
2023/01/16 08:33:38;;;;;;;17.27;11.02;;;7.20;99.90;;;;;;5050563;28;20067;-49
2023/01/16 08:36:06;;;;;;;14.68;8.30;;;7.30;99.90;;;;;;5047257;28;20063;-52
2023/01/16 08:38:32;;;;;;;15.98;9.68;;;7.40;99.90;;;;;;5030492;28;20037;-48
2023/01/16 08:40:59;;;;;;;16.00;10.60;;;;;;;;;;5046418;28;20364;-53
2023/01/16 08:51:57;;;;;;;8.10;5.22;;;7.70;99.90;;;;;;5052018;28;20223;-48
2023/01/16 08:54:22;;;;;;;9.10;4.85;;;7.70;99.90;;;;;;5058398;28;20099;-47
2023/01/16 08:56:48;;;;;;;12.85;8.45;;;7.60;99.90;;;;;;5049661;28;20380;-47
2023/01/16 08:59:14;;;;;;;8.18;5.65;;;7.60;99.90;;;;;;5051945;28;20036;-47
2023/01/16 09:01:41;;;;;;;11.88;7.40;;;7.70;99.90;;;;;;5058291;28;20381;-48
2023/01/16 09:04:08;;;;;;;10.43;7.18;;;7.70;99.90;;;;;;5055467;28;20055;-47
2023/01/16 09:06:35;;;;;;;12.05;6.57;;;7.70;99.90;;;;;;5036626;28;20032;-47
2023/01/16 09:09:04;;;;;;;9.82;5.50;;;7.60;99.90;;;;;;5055448;28;20029;-48
2023/01/16 09:14:14;;;;;;;14.63;10.38;;;7.80;99.90;;;;;;5052015;28;20063;-48
2023/01/16 09:16:39;;;;;;;18.30;10.68;;;7.80;99.90;;;;;;5036650;28;20037;-48
2023/01/16 09:19:05;;;;;;;14.30;9.65;;;7.90;99.90;;;;;;5054893;28;20028;-47
2023/01/16 09:21:31;;;;;;;15.07;10.55;;;8.00;99.90;;;;;;5055391;28;20025;-48
2023/01/16 09:23:57;;;;;;;11.05;7.05;;;8.00;99.90;;;;;;5055468;28;20079;-47
2023/01/16 09:27:00;;;;;;;17.95;11.57;;;7.90;99.90;;;;;;5053631;28;20099;-48
2023/01/16 09:29:26;;;;;;;11.82;7.47;;;8.80;99.90;;;;;;5055890;28;20380;-47
2023/01/16 09:31:52;;;;;;;15.57;10.82;;;8.00;99.90;;;;;;5056062;28;20489;-47
2023/01/16 09:34:18;;;;;;;17.80;11.55;;;8.10;99.90;;;;;;5055293;28;20029;-47
2023/01/16 09:36:44;;;;;;;14.40;9.38;;;8.20;99.90;;;;;;5036938;28;20392;-47
2023/01/16 09:39:09;;;;;;;9.35;7.22;;;8.20;99.90;;;;;;5053352;28;20080;-47
2023/01/16 09:44:48;;;;;;;13.70;8.30;;;8.20;99.90;;;;;;5013395;28;20041;-47
2023/01/16 09:47:13;;;;;;;10.90;7.35;;;8.20;99.90;;;;;;5013192;28;20042;-46
2023/01/16 09:49:46;;;;;;;21.98;12.20;;;8.20;99.90;;;;;;5013327;28;20088;-48
2023/01/16 10:00:40;;;;;;;16.60;9.85;;;8.20;99.90;;;;;;5013446;28;20111;-47
2023/01/16 10:03:07;;;;;;;13.15;8.82;;;8.30;99.90;;;;;;4980601;28;20092;-48
2023/01/16 10:05:41;;;;;;;16.25;11.65;;;8.30;99.90;;;;;;5013075;28;20169;-48
2023/01/16 10:08:26;;;;;;;15.00;10.48;;;8.40;99.90;;;;;;5012722;28;20402;-49
2023/01/16 10:11:17;;;;;;;10.60;6.55;;;8.60;99.90;;;;;;5012683;28;20029;-48
2023/01/16 10:13:51;;;;;;;11.07;6.03;;;8.50;99.90;;;;;;5012855;28;20502;-47
2023/01/16 10:16:31;;;;;;;8.98;5.32;;;8.50;99.90;;;;;;5012543;28;20041;-48
2023/01/16 10:19:17;;;;;;;10.68;7.18;;;8.40;99.90;;;;;;5012673;28;20186;-49
2023/01/16 10:22:20;;;;;;;13.15;7.80;;;8.40;99.90;;;;;;5011133;28;20037;-48
2023/01/16 10:24:46;;;;;;;9.48;6.13;;;8.40;99.90;;;;;;5054501;28;20112;-48
2023/01/16 10:27:14;;;;;;;14.02;7.20;;;8.30;99.90;;;;;;5054182;28;20079;-48
2023/01/16 10:29:50;;;;;;;12.75;7.82;;;8.30;99.90;;;;;;5054756;28;20032;-48
2023/01/16 10:32:25;;;;;;;9.40;6.60;;;8.40;99.90;;;;;;5054137;28;20127;-47
2023/01/16 10:34:53;;;;;;;16.60;10.10;;;8.30;99.90;;;;;;5054296;28;20080;-48
2023/01/16 10:37:21;;;;;;;15.52;10.30;;;8.40;99.90;;;;;;5054336;28;20024;-48
2023/01/16 10:39:50;;;;;;;9.20;6.25;;;8.40;99.90;;;;;;5054125;28;20045;-48
2023/01/16 10:50:47;;;;;;;13.05;8.98;;;8.60;99.90;;;;;;5053966;28;20036;-47
2023/01/16 10:53:14;;;;;;;13.35;9.13;;;8.60;99.90;;;;;;5054079;28;20167;-47
2023/01/16 10:55:44;;;;;;;12.52;8.50;;;8.70;99.90;;;;;;5053951;28;20100;-47
2023/01/16 10:58:21;;;;;;;12.60;9.60;;;8.70;99.90;;;;;;5051987;28;20032;-48
2023/01/16 11:00:49;;;;;;;13.63;8.15;;;8.80;99.90;;;;;;5051659;28;20033;-49
2023/01/16 11:03:22;;;;;;;14.68;10.40;;;8.80;99.90;;;;;;5054009;28;20040;-48
2023/01/16 11:05:47;;;;;;;13.20;9.30;;;8.80;99.90;;;;;;5053543;28;20035;-48
2023/01/16 11:08:18;;;;;;;16.30;10.23;;;8.90;99.90;;;;;;5051732;28;20037;-48
2023/01/16 11:10:47;;;;;;;14.10;8.93;;;8.80;99.90;;;;;;5054114;28;20033;-47
2023/01/16 11:19:23;;;;;;;9.70;6.78;;;8.90;99.90;;;;;;5011729;28;20072;-47
2023/01/16 11:21:55;;;;;;;14.70;8.90;;;8.80;99.90;;;;;;5011624;28;20033;-47
2023/01/16 11:24:28;;;;;;;14.27;8.82;;;8.80;99.90;;;;;;5011285;28;20030;-48
2023/01/16 11:26:57;;;;;;;14.55;9.20;;;8.80;99.90;;;;;;5011752;28;20057;-48
2023/01/16 11:29:29;;;;;;;7.82;5.25;;;8.80;99.90;;;;;;5011954;28;20041;-50
2023/01/16 11:31:56;;;;;;;;;;;8.70;99.90;;;;;;5014598;28;20034;-47
2023/01/16 11:34:27;;;;;;;14.13;8.65;;;8.80;99.90;;;;;;5014998;28;19931;-48
2023/01/16 11:37:00;;;;;;;11.90;8.35;;;8.80;99.90;;;;;;5014114;28;20045;-47
2023/01/16 11:39:29;;;;;;;12.10;8.43;;;8.80;99.90;;;;;;5013304;28;20133;-50
2023/01/16 11:41:58;;;;;;;13.45;8.90;;;8.90;99.90;;;;;;5013073;28;20421;-47
2023/01/16 11:47:16;;;;;;;11.35;8.07;;;8.90;99.90;;;;;;5011472;28;20513;-52
2023/01/16 11:49:50;;;;;;;15.20;9.07;;;8.80;99.90;;;;;;5030979;28;20045;-48
2023/01/16 11:52:29;;;;;;;13.70;8.65;;;8.90;99.90;;;;;;5052950;28;20104;-48
2023/01/16 11:55:04;;;;;;;10.30;8.15;;;8.90;99.90;;;;;;5052864;28;20056;-48
2023/01/16 11:57:30;;;;;;;10.55;7.20;;;;;;;;;;4991262;28;20603;-48
2023/01/16 12:00:16;;;;;;;8.45;3.70;;;9.00;99.90;;;;;;4989533;28;20142;-49
2023/01/16 12:03:01;;;;;;;9.75;6.72;;;;;;;;;;4990692;28;20113;-48
2023/01/16 12:08:21;;;;;;;10.23;7.53;;;8.90;99.90;;;;;;4991566;28;20114;-49
2023/01/16 12:11:10;;;;;;;11.20;8.15;;;9.00;99.90;;;;;;4991290;28;20066;-48
2023/01/16 12:17:09;;;;;;;11.73;7.25;;;9.10;99.90;;;;;;4991386;28;20138;-48
2023/01/16 12:19:58;;;;;;;11.00;8.20;;;9.20;99.90;;;;;;4958954;28;20105;-48
2023/01/16 12:22:42;;;;;;;11.20;7.20;;;9.80;99.90;;;;;;4991207;28;20386;-48
2023/01/16 12:25:17;;;;;;;12.60;8.55;;;;;;;;;;4991303;28;20034;-48
2023/01/16 12:28:01;;;;;;;10.13;6.90;;;10.70;99.90;;;;;;4969825;28;20041;-49
2023/01/16 12:30:47;;;;;;;11.38;7.50;;;;;;;;;;5052555;28;20119;-48
2023/01/16 12:33:28;;;;;;;10.25;7.18;;;11.70;99.90;;;;;;5052580;28;20484;-49
2023/01/16 12:36:13;;;;;;;11.45;7.78;;;11.50;99.90;;;;;;5056616;28;20033;-49
2023/01/16 12:39:07;;;;;;;8.00;5.55;;;11.20;99.90;;;;;;5056223;28;20037;-48
2023/01/16 12:44:43;;;;;;;15.35;9.15;;;11.20;99.90;;;;;;5052706;28;20079;-48
2023/01/16 12:47:31;;;;;;;12.60;8.00;;;11.00;99.90;;;;;;5053761;28;20032;-47
2023/01/16 12:50:19;;;;;;;11.00;6.65;;;11.30;99.90;;;;;;5055440;28;20025;-46
2023/01/16 12:53:00;;;;;;;11.00;7.38;;;11.60;99.90;;;;;;5055478;28;20370;-46
2023/01/16 12:55:35;;;;;;;12.65;7.63;;;;;;;;;;5053643;28;20053;-46
2023/01/16 12:58:16;;;;;;;10.32;7.57;;;;;;;;;;5051077;28;20037;-48
2023/01/16 13:01:01;;;;;;;11.77;7.30;;;;;;;;;;5054210;28;20052;-50
2023/01/16 13:03:39;;;;;;;11.05;8.00;;;;;;;;;;5054370;28;20266;-49
2023/01/16 13:06:08;;;;;;;10.30;7.40;;;12.20;99.90;;;;;;5055655;28;20025;-48
2023/01/16 13:09:00;;;;;;;10.45;7.30;;;12.00;99.90;;;;;;5055936;28;20094;-48
2023/01/16 13:14:19;;;;;;;9.95;6.72;;;;;;;;;;5055398;28;20381;-48
2023/01/16 13:17:02;;;;;;;10.00;7.68;;;11.70;99.90;;;;;;5055248;28;20028;-48
2023/01/16 13:19:32;;;;;;;8.38;5.97;;;11.80;99.90;;;;;;5054459;28;20437;-48
2023/01/16 13:22:11;;;;;;;6.78;4.95;;;11.30;99.90;;;;;;5054591;28;20058;-48
2023/01/16 13:24:44;;;;;;;8.55;5.45;;;11.20;99.90;;;;;;5053547;28;20035;-48
2023/01/16 13:27:20;;;;;;;8.00;5.13;;;11.10;99.90;;;;;;5053303;28;20036;-48
2023/01/16 13:29:52;;;;;;;9.15;6.28;;;11.10;99.90;;;;;;5054659;28;20491;-48
2023/01/16 13:32:27;;;;;;;6.65;4.95;;;11.00;99.90;;;;;;5052461;28;20021;-48
2023/01/16 13:35:20;;;;;;;6.50;4.65;;;11.00;99.90;;;;;;5053208;28;20021;-49
2023/01/16 13:37:52;;;;;;;10.18;5.75;;;10.80;99.90;;;;;;5054325;28;20055;-47
2023/01/16 13:40:39;;;;;;;9.05;6.65;;;10.90;99.90;;;;;;5054681;28;20024;-48
2023/01/16 13:46:04;;;;;;;8.75;5.90;;;10.80;99.90;;;;;;5037912;28;20140;-46
2023/01/16 13:48:33;;;;;;;9.13;7.20;;;10.80;99.90;;;;;;5052558;28;20111;-48
2023/01/16 13:51:08;;;;;;;8.15;5.30;;;10.90;99.90;;;;;;5053740;28;20021;-47
2023/01/16 13:53:36;;;;;;;10.65;6.93;;;10.80;99.90;;;;;;5051086;28;20377;-47
2023/01/16 13:56:13;;;;;;;8.15;6.20;;;10.70;99.90;;;;;;5053807;28;20064;-48
2023/01/16 13:58:46;;;;;;;9.07;5.88;;;10.70;99.90;;;;;;5054770;28;20042;-47
2023/01/16 14:01:33;;;;;;;9.02;6.72;;;10.60;99.90;;;;;;5053399;28;20025;-48
2023/01/16 14:04:27;;;;;;;8.50;5.57;;;10.60;99.90;;;;;;5054202;28;20448;-47
2023/01/16 14:10:21;;;;;;;9.98;5.85;;;10.50;99.90;;;;;;5054875;28;20456;-47
2023/01/16 14:13:12;;;;;;;7.47;5.25;;;10.40;99.90;;;;;;4993415;28;20486;-47
2023/01/16 14:18:47;;;;;;;9.43;5.00;;;10.40;99.90;;;;;;4992515;28;20065;-48
2023/01/16 14:21:22;;;;;;;6.25;5.00;;;10.30;99.90;;;;;;4992737;28;20038;-47
2023/01/16 14:24:02;;;;;;;6.55;3.95;;;10.20;99.90;;;;;;4992730;28;20106;-47